Flight Track Log - Related Links

Times and Time Zones

All times are in EDT time to prevent confusion due to time zone crossing. See the UAL33 flight status page for this flight to view local times or setup timezone preferences in your user account.

Time Position Orientation Groundspeed Altitude Reporting Facility
EDT Latitude Longitude Course Direction KTS MPH feet Rate Location/Type
Sun 04:33:02 PM 33.9300 -118.4330 263° West 188 216 1,500  Level FlightAware ADS-B
Sun 04:33:17 PM 33.9290 -118.4480 265° West 202 232 1,900 2,057 Climbing FlightAware ADS-B
Sun 04:33:37 PM 33.9260 -118.4720 261° West 220 253 2,700 2,667 Climbing FlightAware ADS-B
Sun 04:34:02 PM 33.9170 -118.5010 250° West 225 259 3,900 2,760 Climbing FlightAware ADS-B
Sun 04:34:27 PM 33.9080 -118.5290 249° West 230 265 5,000 2,509 Climbing FlightAware ADS-B
Sun 04:34:57 PM 33.8980 -118.5610 249° West 235 270 6,200 2,618 Climbing FlightAware ADS-B
Sun 04:35:22 PM 33.8860 -118.5980 249° West 247 284 7,400 1,855 Climbing FlightAware ADS-B
Sun 04:35:52 PM 33.8660 -118.6300 233° Southwest 254 292 7,900 667 Climbing FlightAware ADS-B
Sun 04:36:07 PM 33.8490 -118.6380 201° Southwest 259 298 7,900  Level FlightAware ADS-B
Sun 04:36:22 PM 33.8310 -118.6350 172° South 258 297 7,900  Level FlightAware ADS-B
Sun 04:36:32 PM 33.8210 -118.6280 150° Southeast 258 297 7,900 1,200 Level FlightAware ADS-B
Sun 04:36:47 PM 33.8110 -118.6090 122° Southeast 263 303 8,400 2,160 Climbing FlightAware ADS-B
Sun 04:36:57 PM 33.8090 -118.5970 101° East 265 305 8,800 2,267 Climbing FlightAware ADS-B
Sun 04:37:32 PM 33.8290 -118.5500 63° Northeast 281 323 10,100 1,680 Climbing FlightAware ADS-B
Sun 04:38:12 PM 33.8670 -118.5020 46° Northeast 328 377 10,900 1,200 Climbing FlightAware ADS-B
Sun 04:38:52 PM 33.9120 -118.4490 44° Northeast 373 429 11,700 1,694 Climbing FlightAware ADS-B
Sun 04:39:37 PM 33.9660 -118.3680 51° Northeast 400 460 13,300 2,329 Climbing FlightAware ADS-B
Sun 04:40:17 PM 34.0050 -118.2930 58° Northeast 408 470 15,000 2,400 Climbing FlightAware ADS-B
Sun 04:40:57 PM 34.0440 -118.2240 56° Northeast 417 480 16,500 2,240 Climbing FlightAware ADS-B
Sun 04:41:32 PM 34.0850 -118.1520 55° Northeast 429 494 17,800 2,541 Climbing FlightAware ADS-B
Sun 04:42:22 PM 34.1540 -118.0290 56° Northeast 441 507 20,100 2,400 Climbing FlightAware ADS-B
Sun 04:43:07 PM 34.2060 -117.9380 55° Northeast 453 521 21,600 1,976 Climbing FlightAware ADS-B
Sun 04:43:47 PM 34.2530 -117.8540 56° Northeast 460 529 22,900 1,906 Climbing FlightAware ADS-B
Sun 04:44:32 PM 34.3090 -117.7530 56° Northeast 468 539 24,300 1,694 Climbing FlightAware ADS-B
Sun 04:45:12 PM 34.3550 -117.6700 56° Northeast 475 547 25,300 1,500 Climbing FlightAware ADS-B
Sun 04:45:52 PM 34.4050 -117.5810 56° Northeast 485 558 26,300 1,553 Climbing FlightAware ADS-B
Sun 04:46:37 PM 34.4630 -117.4770 56° Northeast 492 566 27,500 1,835 Climbing FlightAware ADS-B
Sun 04:47:17 PM 34.5140 -117.3850 56° Northeast 487 560 28,900 2,118 Climbing FlightAware ADS-B
Sun 04:48:02 PM 34.5690 -117.2850 56° Northeast 480 552 30,500 1,482 Climbing FlightAware ADS-B
Sun 04:48:42 PM 34.6180 -117.1960 56° Northeast 486 559 31,000 375 Climbing FlightAware ADS-B
Sun 04:49:22 PM 34.6700 -117.1030 56° Northeast 488 562 31,000  Level FlightAware ADS-B
Sun 04:50:07 PM 34.7250 -117.0020 56° Northeast 485 558 31,000  Level FlightAware ADS-B
Sun 04:50:42 PM 34.7680 -116.9240 56° Northeast 483 556 31,000  Level FlightAware ADS-B
Sun 04:51:22 PM 34.8190 -116.8300 57° Northeast 481 554 31,000 450 Level FlightAware ADS-B
Sun 04:52:02 PM 34.8680 -116.7400 56° Northeast 478 550 31,600 1,271 Climbing FlightAware ADS-B
Sun 04:52:47 PM 34.9210 -116.6430 56° Northeast 477 549 32,800 1,482 Climbing FlightAware ADS-B
Sun 04:53:27 PM 34.9740 -116.5570 53° Northeast 475 547 33,700 1,482 Climbing FlightAware ADS-B
Sun 04:54:12 PM 35.0440 -116.4670 46° Northeast 470 541 34,900 1,553 Climbing FlightAware ADS-B
Sun 04:54:52 PM 35.1050 -116.3920 45° Northeast 466 536 35,900 1,200 Climbing FlightAware ADS-B
Sun 04:55:37 PM 35.1710 -116.3100 45° Northeast 469 540 36,600 776 Climbing FlightAware ADS-B
Sun 04:56:17 PM 35.2340 -116.2310 46° Northeast 473 544 37,000 300 Climbing FlightAware ADS-B
Sun 04:56:57 PM 35.2960 -116.1540 45° Northeast 474 545 37,000  Level FlightAware ADS-B
Sun 04:57:42 PM 35.3630 -116.0700 46° Northeast 473 544 37,000  Level FlightAware ADS-B
Sun 04:58:22 PM 35.4240 -115.9930 46° Northeast 470 541 37,000  Level FlightAware ADS-B
Sun 04:59:02 PM 35.4840 -115.9160 46° Northeast 470 541 37,000  Level FlightAware ADS-B
Sun 04:59:47 PM 35.5530 -115.8290 46° Northeast 468 539 37,000  Level FlightAware ADS-B
Sun 05:00:27 PM 35.6130 -115.7540 45° Northeast 467 537 37,000  Level FlightAware ADS-B
Sun 05:01:12 PM 35.6790 -115.6690 46° Northeast 466 536 37,000  Level FlightAware ADS-B
Sun 05:01:52 PM 35.7390 -115.5930 46° Northeast 467 537 37,000  Level FlightAware ADS-B
Sun 05:02:37 PM 35.8070 -115.5070 46° Northeast 467 537 37,000  Level FlightAware ADS-B
Sun 05:03:17 PM 35.8700 -115.4260 46° Northeast 468 539 37,000  Level FlightAware ADS-B
Sun 05:03:57 PM 35.9300 -115.3500 46° Northeast 469 540 37,000  Level FlightAware ADS-B
Sun 05:04:42 PM 35.9950 -115.2650 47° Northeast 468 539 37,000  Level FlightAware ADS-B
Sun 05:05:22 PM 36.0560 -115.1860 46° Northeast 471 542 37,000  Level FlightAware ADS-B
Sun 05:06:07 PM 36.1050 -115.0810 60° Northeast 483 556 37,000  Level FlightAware ADS-B
Sun 05:06:47 PM 36.1380 -114.9770 69° East 485 558 37,000  Level FlightAware ADS-B
Sun 05:07:27 PM 36.1710 -114.8700 69° East 486 559 37,000  Level FlightAware ADS-B
Sun 05:08:12 PM 36.2060 -114.7560 69° East 485 558 37,000  Level FlightAware ADS-B
Sun 05:08:52 PM 36.2370 -114.6550 69° East 486 559 37,000  Level FlightAware ADS-B
Sun 05:09:32 PM 36.2680 -114.5520 70° East 486 559 37,000  Level FlightAware ADS-B
Sun 05:10:17 PM 36.3050 -114.4320 69° East 487 560 37,000  Level FlightAware ADS-B
Sun 05:10:57 PM 36.3380 -114.3260 69° East 488 562 37,000  Level FlightAware ADS-B
Sun 05:11:42 PM 36.3720 -114.2110 70° East 488 562 37,000  Level FlightAware ADS-B
Sun 05:12:22 PM 36.4040 -114.1050 69° East 488 562 37,000  Level FlightAware ADS-B
Sun 05:13:07 PM 36.4400 -113.9890 69° East 489 563 37,000  Level FlightAware ADS-B
Sun 05:13:47 PM 36.4720 -113.8820 70° East 491 565 37,000  Level FlightAware ADS-B
Sun 05:14:27 PM 36.5030 -113.7770 70° East 491 565 37,000  Level FlightAware ADS-B
Sun 05:15:07 PM 36.5340 -113.6700 70° East 492 566 37,000  Level FlightAware ADS-B
Sun 05:15:52 PM 36.5710 -113.5470 69° East 494 568 37,000  Level FlightAware ADS-B
Sun 05:16:37 PM 36.6050 -113.4320 70° East 494 568 37,000  Level FlightAware ADS-B
Sun 05:17:17 PM 36.6360 -113.3250 70° East 494 568 37,000  Level FlightAware ADS-B
Sun 05:17:57 PM 36.6680 -113.2170 70° East 496 571 37,000  Level FlightAware ADS-B
Sun 05:18:42 PM 36.7030 -113.0930 71° East 497 572 37,000  Level FlightAware ADS-B
Sun 05:19:22 PM 36.7340 -112.9860 70° East 498 573 37,000  Level FlightAware ADS-B
Sun 05:20:07 PM 36.7690 -112.8670 70° East 497 572 37,000  Level FlightAware ADS-B
Sun 05:20:47 PM 36.7980 -112.7640 71° East 498 573 37,000  Level FlightAware ADS-B
Sun 05:21:27 PM 36.8300 -112.6510 70° East 499 574 37,000  Level FlightAware ADS-B
Sun 05:22:02 PM 36.8570 -112.5560 70° East 499 574 37,000  Level FlightAware ADS-B
Sun 05:22:47 PM 36.8880 -112.4500 70° East 499 574 37,000  Level FlightAware ADS-B
Sun 05:23:37 PM 36.9210 -112.3350 70° East 499 574 37,000  Level FlightAware ADS-B
Sun 05:24:17 PM 36.9480 -112.2430 70° East 499 574 37,000  Level FlightAware ADS-B
Sun 05:24:57 PM 36.9750 -112.1500 70° East 499 574 37,000  Level FlightAware ADS-B
Sun 05:25:37 PM 37.0020 -112.0580 70° East 499 574 37,000  Level FlightAware ADS-B
Sun 05:26:17 PM 37.0290 -111.9660 70° East 499 574 37,000  Level FlightAware ADS-B
Sun 05:27:07 PM 37.0620 -111.8500 70° East 499 574 37,000  Level FlightAware ADS-B
Sun 05:27:47 PM 37.0890 -111.7580 70° East 499 574 37,000  Level FlightAware ADS-B
Sun 05:28:27 PM 37.1160 -111.6650 70° East 499 574 37,000  Level FlightAware ADS-B
Sun 05:29:07 PM 37.1430 -111.5730 70° East 499 574 37,000  Level FlightAware ADS-B
Sun 05:29:47 PM 37.1700 -111.4800 70° East 499 574 37,000  Level FlightAware ADS-B
Sun 05:30:37 PM 37.2030 -111.3640 70° East 499 574 37,000  Level FlightAware ADS-B
Sun 05:31:17 PM 37.2300 -111.2720 70° East 499 574 37,000  Level FlightAware ADS-B
Sun 05:31:57 PM 37.2570 -111.1790 70° East 499 574 37,000  Level FlightAware ADS-B
Sun 05:32:38 PM 37.3206 -110.8461 70° East 490 564 37,000  Level Denver Center
Sun 05:33:40 PM 37.3628 -110.6847 72° East 489 563 37,000  Level Denver Center
Sun 05:34:42 PM 37.4042 -110.5236 72° East 486 559 37,000  Level Denver Center
Sun 05:35:44 PM 37.4464 -110.3633 72° East 485 558 37,000  Level Denver Center
Sun 05:36:46 PM 37.4897 -110.1983 72° East 486 559 37,000  Level Denver Center
Sun 05:37:48 PM 37.5361 -110.0161 72° East 489 563 37,000  Level Denver Center
Sun 05:38:49 PM 37.5764 -109.8581 72° East 494 568 37,000  Level Denver Center
Sun 05:39:51 PM 37.6250 -109.6711 72° East 499 574 37,000  Level Denver Center
Sun 05:40:53 PM 37.6650 -109.5083 73° East 504 580 37,000  Level Denver Center
Sun 05:41:56 PM 37.7061 -109.3461 72° East 506 582 37,000  Level Denver Center
Sun 05:42:58 PM 37.7528 -109.1575 73° East 503 579 37,000  Level Denver Center
Sun 05:44:00 PM 37.7928 -108.9964 73° East 501 577 37,000  Level Denver Center
Sun 05:45:02 PM 37.8372 -108.8069 73° East 502 578 37,000  Level Denver Center
Sun 05:46:04 PM 37.8700 -108.6392 76° East 508 585 37,000  Level Denver Center
Sun 05:47:06 PM 37.9103 -108.4486 75° East 503 579 37,000  Level Denver Center
Sun 05:48:08 PM 37.9450 -108.2886 75° East 496 571 37,000 339 Level Denver Center
Sun 05:49:10 PM 37.9844 -108.0975 75° East 499 574 37,700 285 Climbing Denver Center
Sun 05:55:09 PM 38.1960 -107.0200 75° East 528 608 39,000 200 Climbing FlightAware ADS-B
Sun 05:55:40 PM 38.2142 -106.9270 76° East 533 613 39,000  Level FlightAware ADS-B
Sun 05:56:10 PM 38.2321 -106.8350 76° East 535 616 39,000  Level FlightAware ADS-B
Sun 05:56:47 PM 38.2537 -106.7230 76° East 534 615 39,000  Level FlightAware ADS-B
Sun 05:57:17 PM 38.2712 -106.6320 76° East 534 615 39,000  Level FlightAware ADS-B
Sun 05:57:53 PM 38.2922 -106.5220 76° East 534 615 39,000  Level FlightAware ADS-B
Sun 05:58:30 PM 38.3138 -106.4080 76° East 534 615 39,000  Level FlightAware ADS-B
Sun 05:59:02 PM 38.3310 -106.3150 77° East 536 617 39,000  Level FlightAware ADS-B
Sun 05:59:13 PM 38.3389 -106.2770 75° East 537 618 39,000  Level FlightAware ADS-B
Sun 05:59:43 PM 38.3562 -106.1850 76° East 539 620 39,000  Level FlightAware ADS-B
Sun 06:00:15 PM 38.3742 -106.0880 77° East 536 617 39,000  Level FlightAware ADS-B
Sun 06:00:50 PM 38.3934 -105.9850 77° East 513 590 39,000  Level FlightAware ADS-B
Sun 06:01:20 PM 38.4101 -105.8960 77° East 517 595 39,000  Level FlightAware ADS-B
Sun 06:01:51 PM 38.4272 -105.8030 77° East 529 609 39,000  Level FlightAware ADS-B
Sun 06:02:21 PM 38.4442 -105.7120 77° East 532 612 39,000  Level FlightAware ADS-B
Sun 06:02:51 PM 38.4613 -105.6190 77° East 538 619 39,000  Level FlightAware ADS-B
Sun 06:03:21 PM 38.4784 -105.5250 77° East 541 623 39,000  Level FlightAware ADS-B
Sun 06:03:51 PM 38.4954 -105.4320 77° East 545 627 39,000  Level FlightAware ADS-B
Sun 06:04:21 PM 38.5124 -105.3380 77° East 547 629 39,000  Level FlightAware ADS-B
Sun 06:04:52 PM 38.5296 -105.2430 77° East 550 633 39,000  Level FlightAware ADS-B
Sun 06:05:22 PM 38.5467 -105.1470 77° East 550 633 39,000  Level FlightAware ADS-B
Sun 06:05:53 PM 38.5643 -105.0490 77° East 550 633 39,000  Level FlightAware ADS-B
Sun 06:06:23 PM 38.5812 -104.9530 77° East 550 633 39,000  Level FlightAware ADS-B
Sun 06:06:54 PM 38.5984 -104.8570 77° East 548 631 39,000  Level FlightAware ADS-B
Sun 06:07:31 PM 38.6190 -104.7400 77° East 547 629 39,000  Level FlightAware ADS-B
Sun 06:08:04 PM 38.6374 -104.6350 77° East 545 627 39,000  Level FlightAware ADS-B
Sun 06:08:45 PM 38.6593 -104.5090 77° East 543 625 39,000  Level FlightAware ADS-B
Sun 06:09:34 PM 38.6861 -104.3540 77° East 544 626 39,000  Level FlightAware ADS-B
Sun 06:10:05 PM 38.7026 -104.2580 78° East 544 626 39,000  Level FlightAware ADS-B
Sun 06:10:35 PM 38.7188 -104.1630 78° East 544 626 39,000  Level FlightAware ADS-B
Sun 06:11:05 PM 38.7350 -104.0680 78° East 545 627 39,000  Level FlightAware ADS-B
Sun 06:11:36 PM 38.7513 -103.9720 78° East 546 628 39,000  Level FlightAware ADS-B
Sun 06:12:06 PM 38.7675 -103.8760 78° East 545 627 39,000  Level FlightAware ADS-B
Sun 06:12:36 PM 38.7836 -103.7800 78° East 546 628 39,000  Level FlightAware ADS-B
Sun 06:13:07 PM 38.7994 -103.6840 78° East 549 632 39,000  Level FlightAware ADS-B
Sun 06:13:27 PM 38.8073 -103.6190 81° East 551 634 39,000  Level FlightAware ADS-B
Sun 06:13:58 PM 38.8133 -103.5180 86° East 552 635 39,000  Level FlightAware ADS-B
Sun 06:14:29 PM 38.8162 -103.4180 88° East 550 633 39,000  Level FlightAware ADS-B
Sun 06:14:59 PM 38.8186 -103.3200 88° East 551 634 39,000  Level FlightAware ADS-B
Sun 06:15:30 PM 38.8209 -103.2200 88° East 551 634 39,000  Level FlightAware ADS-B
Sun 06:16:00 PM 38.8231 -103.1210 88° East 552 635 39,000  Level FlightAware ADS-B
Sun 06:16:31 PM 38.8253 -103.0200 88° East 552 635 39,000  Level FlightAware ADS-B
Sun 06:17:02 PM 38.8274 -102.9180 88° East 552 635 39,000  Level FlightAware ADS-B
Sun 06:17:32 PM 38.8294 -102.8200 88° East 552 635 39,000  Level FlightAware ADS-B
Sun 06:18:03 PM 38.8314 -102.7190 89° East 552 635 39,000  Level FlightAware ADS-B
Sun 06:18:34 PM 38.8334 -102.6180 89° East 551 634 39,000  Level FlightAware ADS-B
Sun 06:19:06 PM 38.8353 -102.5150 89° East 550 633 39,000  Level FlightAware ADS-B
Sun 06:19:36 PM 38.8372 -102.4160 89° East 550 633 39,000  Level FlightAware ADS-B
Sun 06:20:06 PM 38.8389 -102.3170 89° East 551 634 39,000  Level FlightAware ADS-B
Sun 06:20:39 PM 38.8406 -102.2100 89° East 550 633 39,000  Level FlightAware ADS-B
Sun 06:21:09 PM 38.8420 -102.1130 89° East 549 632 39,000  Level FlightAware ADS-B
Sun 06:21:41 PM 38.8435 -102.0110 89° East 548 631 39,000  Level FlightAware ADS-B
Sun 06:22:11 PM 38.8449 -101.9120 89° East 547 629 39,000  Level FlightAware ADS-B
Sun 06:22:42 PM 38.8461 -101.8130 89° East 545 627 39,000  Level FlightAware ADS-B
Sun 06:23:12 PM 38.8473 -101.7150 89° East 542 624 39,000  Level FlightAware ADS-B
Sun 06:23:43 PM 38.8484 -101.6170 89° East 540 621 39,000  Level FlightAware ADS-B
Sun 06:24:13 PM 38.8494 -101.5220 89° East 538 619 39,000  Level FlightAware ADS-B
Sun 06:24:44 PM 38.8504 -101.4230 89° East 536 617 39,000  Level FlightAware ADS-B
Sun 06:25:20 PM 38.8533 -101.3253 89° East 533 613 39,000  Level Denver Center
Sun 06:26:22 PM 38.8536 -101.1428 90° East 534 615 39,000  Level Denver Center
Sun 06:27:24 PM 38.8547 -100.9639 89° East 526 605 39,000  Level Denver Center
Sun 06:28:26 PM 38.8550 -100.7514 90° East 533 613 39,000  Level Denver Center
Sun 06:29:28 PM 38.8556 -100.5700 90° East 531 611 39,000  Level Denver Center
Sun 06:30:30 PM 38.8553 -100.3611 90° East 526 605 39,000  Level Denver Center
Sun 06:31:31 PM 38.8544 -100.1814 90° East 526 605 39,000  Level Denver Center
Sun 06:32:33 PM 38.8536 -99.9694 90° East 529 609 39,000  Level Denver Center
Sun 06:33:35 PM 38.8525 -99.7914 90° East 525 604 39,000  Level Denver Center
Sun 06:34:37 PM 38.8508 -99.5794 91° East 530 610 39,000  Level Denver Center
Sun 06:35:39 PM 38.8483 -99.4008 91° East 524 603 39,000  Level Denver Center
Sun 06:36:37 PM 38.8478 -99.2286 90° East 526 605 39,000  Level Kansas City Center
Sun 06:37:39 PM 38.8597 -99.0411 85° East 526 605 39,000  Level Kansas City Center
Sun 06:38:41 PM 38.8689 -98.8556 86° East 522 601 39,000  Level Kansas City Center
Sun 06:39:45 PM 38.8786 -98.6694 86° East 520 598 39,000  Level Kansas City Center
Sun 06:45:27 PM 38.9360 -97.5680 86° East 511 588 39,000  Level FlightAware ADS-B
Sun 06:45:57 PM 38.9470 -97.4790 81° East 509 586 39,000  Level FlightAware ADS-B
Sun 06:46:52 PM 38.9660 -97.3390 80° East 508 585 39,000  Level FlightAware ADS-B
Sun 06:47:32 PM 38.9800 -97.2380 80° East 508 585 39,000  Level FlightAware ADS-B
Sun 06:48:12 PM 38.9940 -97.1360 80° East 508 585 39,000  Level FlightAware ADS-B
Sun 06:48:52 PM 39.0080 -97.0350 80° East 508 585 39,000  Level FlightAware ADS-B
Sun 06:49:42 PM 39.0250 -96.9080 80° East 508 585 39,000  Level FlightAware ADS-B
Sun 06:50:22 PM 39.0390 -96.8070 80° East 508 585 39,000  Level FlightAware ADS-B
Sun 06:51:02 PM 39.0530 -96.7060 80° East 508 585 39,000  Level FlightAware ADS-B
Sun 06:51:42 PM 39.0670 -96.6040 80° East 508 585 39,000  Level FlightAware ADS-B
Sun 06:52:22 PM 39.0810 -96.5030 80° East 508 585 39,000  Level FlightAware ADS-B
Sun 06:53:02 PM 39.0940 -96.4020 81° East 508 585 39,000  Level FlightAware ADS-B
Sun 06:53:52 PM 39.1310 -96.0680 82° East 507 583 39,000  Level FlightAware ADS-B
Sun 06:54:32 PM 39.1450 -95.9490 81° East 505 581 39,000  Level FlightAware ADS-B
Sun 06:55:07 PM 39.1570 -95.8570 80° East 505 581 39,000  Level FlightAware ADS-B
Sun 06:56:02 PM 39.1660 -95.7800 81° East 505 581 39,000  Level FlightAware ADS-B
Sun 06:57:57 PM 39.2040 -95.4640 81° East 505 581 39,000  Level FlightAware ADS-B
Sun 07:00:27 PM 39.2560 -95.0140 81° East 506 582 39,000  Level FlightAware ADS-B
Sun 07:01:07 PM 39.2670 -94.9110 82° East 505 581 39,000  Level FlightAware ADS-B
Sun 07:02:02 PM 39.2820 -94.7760 82° East 504 580 39,000  Level FlightAware ADS-B
Sun 07:02:47 PM 39.3190 -94.4830 81° East 500 575 39,000  Level FlightAware ADS-B
Sun 07:03:27 PM 39.3340 -94.3670 80° East 499 574 39,000  Level FlightAware ADS-B
Sun 07:04:12 PM 39.3510 -94.2320 81° East 498 573 39,000  Level FlightAware ADS-B
Sun 07:04:52 PM 39.3660 -94.1190 80° East 498 573 39,000  Level FlightAware ADS-B
Sun 07:05:32 PM 39.3810 -93.9980 81° East 497 572 39,000  Level FlightAware ADS-B
Sun 07:06:12 PM 39.3950 -93.8820 81° East 497 572 39,000  Level FlightAware ADS-B
Sun 07:06:57 PM 39.4110 -93.7530 81° East 496 571 39,000  Level FlightAware ADS-B
Sun 07:07:37 PM 39.4250 -93.6370 81° East 494 568 39,000  Level FlightAware ADS-B
Sun 07:08:17 PM 39.4390 -93.5190 81° East 493 567 39,000  Level FlightAware ADS-B
Sun 07:09:02 PM 39.4550 -93.3860 81° East 494 568 39,000  Level FlightAware ADS-B
Sun 07:09:42 PM 39.4680 -93.2760 81° East 494 568 39,000  Level FlightAware ADS-B
Sun 07:10:27 PM 39.4830 -93.1420 82° East 494 568 39,000  Level FlightAware ADS-B
Sun 07:11:07 PM 39.4970 -93.0230 81° East 494 568 39,000  Level FlightAware ADS-B
Sun 07:11:52 PM 39.5130 -92.8880 81° East 494 568 39,000  Level FlightAware ADS-B
Sun 07:12:32 PM 39.5260 -92.7710 82° East 494 568 39,000  Level FlightAware ADS-B
Sun 07:13:07 PM 39.5380 -92.6700 81° East 495 570 39,000  Level FlightAware ADS-B
Sun 07:13:52 PM 39.5520 -92.5420 82° East 493 567 39,000  Level FlightAware ADS-B
Sun 07:14:47 PM 39.5690 -92.3900 82° East 493 567 39,000  Level FlightAware ADS-B
Sun 07:15:27 PM 39.5810 -92.2910 81° East 493 567 39,000  Level FlightAware ADS-B
Sun 07:16:17 PM 39.5980 -92.1170 83° East 494 568 39,000  Level FlightAware ADS-B
Sun 07:17:02 PM 39.6120 -91.9870 82° East 494 568 39,000  Level FlightAware ADS-B
Sun 07:17:42 PM 39.6240 -91.8720 82° East 494 568 39,000  Level FlightAware ADS-B
Sun 07:18:17 PM 39.6360 -91.7630 82° East 493 567 39,000  Level FlightAware ADS-B
Sun 07:18:57 PM 39.6470 -91.6540 82° East 493 567 39,000  Level FlightAware ADS-B
Sun 07:19:57 PM 39.6660 -91.4720 82° East 492 566 39,000  Level FlightAware ADS-B
Sun 07:20:42 PM 39.6780 -91.3470 83° East 493 567 39,000  Level FlightAware ADS-B
Sun 07:21:27 PM 39.6920 -91.2100 82° East 494 568 39,000  Level FlightAware ADS-B
Sun 07:22:07 PM 39.7030 -91.0980 83° East 493 567 39,000  Level FlightAware ADS-B
Sun 07:22:52 PM 39.7160 -90.9600 83° East 493 567 39,000  Level FlightAware ADS-B
Sun 07:23:32 PM 39.7280 -90.8420 82° East 494 568 39,000  Level FlightAware ADS-B
Sun 07:24:12 PM 39.7400 -90.7190 83° East 494 568 39,000  Level FlightAware ADS-B
Sun 07:24:47 PM 39.7480 -90.6290 83° East 494 568 39,000  Level FlightAware ADS-B
Sun 07:25:37 PM 39.7630 -90.4730 83° East 494 568 39,000  Level FlightAware ADS-B
Sun 07:26:17 PM 39.7740 -90.3540 83° East 494 568 39,000  Level FlightAware ADS-B
Sun 07:26:57 PM 39.7840 -90.2420 83° East 494 568 39,000  Level FlightAware ADS-B
Sun 07:27:42 PM 39.7960 -90.1110 83° East 493 567 39,000  Level FlightAware ADS-B
Sun 07:28:22 PM 39.8060 -89.9990 83° East 493 567 39,000  Level FlightAware ADS-B
Sun 07:29:07 PM 39.8190 -89.8570 83° East 492 566 39,000  Level FlightAware ADS-B
Sun 07:29:42 PM 39.8280 -89.7550 83° East 493 567 39,000  Level FlightAware ADS-B
Sun 07:30:17 PM 39.8370 -89.6630 83° East 493 567 39,000  Level FlightAware ADS-B
Sun 07:30:57 PM 39.8360 -89.5340 91° East 493 567 39,000  Level FlightAware ADS-B
Sun 07:31:37 PM 39.8360 -89.4130 90° East 493 567 39,000  Level FlightAware ADS-B
Sun 07:32:22 PM 39.8370 -89.2810 89° East 492 566 39,000  Level FlightAware ADS-B
Sun 07:33:07 PM 39.8370 -89.1460 90° East 493 567 39,000  Level FlightAware ADS-B
Sun 07:33:47 PM 39.8370 -89.0300 90° East 493 567 39,000  Level FlightAware ADS-B
Sun 07:34:27 PM 39.8370 -88.9100 90° East 493 567 39,000  Level FlightAware ADS-B
Sun 07:35:12 PM 39.8370 -88.7760 90° East 494 568 39,000  Level FlightAware ADS-B
Sun 07:35:52 PM 39.8370 -88.6640 90° East 494 568 39,000  Level FlightAware ADS-B
Sun 07:36:37 PM 39.8370 -88.5240 90° East 495 570 39,000  Level FlightAware ADS-B
Sun 07:37:17 PM 39.8370 -88.4090 90° East 496 571 39,000  Level FlightAware ADS-B
Sun 07:38:02 PM 39.8360 -88.2760 91° East 497 572 39,000  Level FlightAware ADS-B
Sun 07:38:42 PM 39.8360 -88.1540 90° East 498 573 39,000  Level FlightAware ADS-B
Sun 07:39:22 PM 39.8350 -88.0390 91° East 499 574 39,000  Level FlightAware ADS-B
Sun 07:40:02 PM 39.8350 -87.9220 90° East 499 574 39,000  Level FlightAware ADS-B
Sun 07:40:42 PM 39.8350 -87.8200 90° East 499 574 39,000  Level FlightAware ADS-B
Sun 07:41:32 PM 39.8320 -87.6440 91° East 501 577 39,000  Level FlightAware ADS-B
Sun 07:42:12 PM 39.8310 -87.5340 91° East 502 578 39,000  Level FlightAware ADS-B
Sun 07:42:52 PM 39.8290 -87.4020 91° East 501 577 39,000  Level FlightAware ADS-B
Sun 07:43:37 PM 39.8280 -87.2740 91° East 501 577 39,000  Level FlightAware ADS-B
Sun 07:44:17 PM 39.8260 -87.1490 91° East 500 575 39,000  Level FlightAware ADS-B
Sun 07:44:52 PM 39.8240 -87.0390 91° East 499 574 39,000  Level FlightAware ADS-B
Sun 07:45:42 PM 39.8220 -86.8980 91° East 498 573 39,000  Level FlightAware ADS-B
Sun 07:46:27 PM 39.8200 -86.7590 91° East 498 573 39,000  Level FlightAware ADS-B
Sun 07:47:07 PM 39.8180 -86.6390 91° East 497 572 39,000  Level FlightAware ADS-B
Sun 07:47:47 PM 39.8160 -86.5220 91° East 496 571 39,000  Level FlightAware ADS-B
Sun 07:48:42 PM 39.8170 -86.3590 89° East 497 572 39,000  Level FlightAware ADS-B
Sun 07:49:22 PM 39.8370 -86.2460 77° East 496 571 39,000  Level FlightAware ADS-B
Sun 07:50:07 PM 39.8640 -86.1220 74° East 496 571 39,000  Level FlightAware ADS-B
Sun 07:50:47 PM 39.8860 -86.0250 74° East 496 571 39,000  Level FlightAware ADS-B
Sun 07:51:32 PM 39.9170 -85.8700 75° East 497 572 39,000  Level FlightAware ADS-B
Sun 07:52:12 PM 39.9420 -85.7540 74° East 498 573 39,000  Level FlightAware ADS-B
Sun 07:52:47 PM 39.9630 -85.6500 75° East 498 573 39,000  Level FlightAware ADS-B
Sun 07:53:32 PM 39.9890 -85.5350 74° East 498 573 39,000  Level FlightAware ADS-B
Sun 07:54:22 PM 40.0210 -85.3740 75° East 497 572 39,000  Level FlightAware ADS-B
Sun 07:55:02 PM 40.0440 -85.2610 75° East 497 572 39,000  Level FlightAware ADS-B
Sun 07:55:42 PM 40.0690 -85.1410 75° East 497 572 39,000  Level FlightAware ADS-B
Sun 07:56:22 PM 40.0900 -85.0370 75° East 497 572 39,000  Level FlightAware ADS-B
Sun 07:57:07 PM 40.1200 -84.8930 75° East 498 573 39,000  Level FlightAware ADS-B
Sun 07:57:52 PM 40.1570 -84.7710 68° East 500 575 39,000  Level FlightAware ADS-B
Sun 07:58:32 PM 40.1980 -84.6670 63° Northeast 500 575 39,000  Level FlightAware ADS-B
Sun 07:59:12 PM 40.2430 -84.5530 63° Northeast 499 574 39,000  Level FlightAware ADS-B
Sun 07:59:57 PM 40.2910 -84.4310 63° Northeast 500 575 39,000  Level FlightAware ADS-B
Sun 08:00:37 PM 40.3340 -84.3240 62° Northeast 500 575 39,000  Level FlightAware ADS-B
Sun 08:01:22 PM 40.3810 -84.2060 62° Northeast 501 577 39,000  Level FlightAware ADS-B
Sun 08:02:02 PM 40.4240 -84.0970 63° Northeast 500 575 39,000  Level FlightAware ADS-B
Sun 08:02:42 PM 40.4650 -83.9900 63° Northeast 501 577 39,000  Level FlightAware ADS-B
Sun 08:03:27 PM 40.5120 -83.8700 63° Northeast 501 577 39,000  Level FlightAware ADS-B
Sun 08:04:02 PM 40.5490 -83.7730 63° Northeast 502 578 39,000  Level FlightAware ADS-B
Sun 08:04:47 PM 40.5950 -83.6520 63° Northeast 502 578 39,000  Level FlightAware ADS-B
Sun 08:05:32 PM 40.6420 -83.5280 63° Northeast 501 577 39,000  Level FlightAware ADS-B
Sun 08:06:12 PM 40.6840 -83.4200 63° Northeast 501 577 39,000  Level FlightAware ADS-B
Sun 08:06:57 PM 40.7300 -83.2970 64° Northeast 502 578 39,000  Level FlightAware ADS-B
Sun 08:07:32 PM 40.7640 -83.2060 64° Northeast 501 577 39,000  Level FlightAware ADS-B
Sun 08:08:17 PM 40.8060 -83.0930 64° Northeast 503 579 39,000  Level FlightAware ADS-B
Sun 08:09:02 PM 40.8570 -82.9590 63° Northeast 502 578 39,000  Level FlightAware ADS-B
Sun 08:09:42 PM 40.8980 -82.8480 64° Northeast 502 578 39,000  Level FlightAware ADS-B
Sun 08:10:27 PM 40.9450 -82.7210 64° Northeast 503 579 39,000  Level FlightAware ADS-B
Sun 08:11:07 PM 40.9870 -82.6080 64° Northeast 502 578 39,000  Level FlightAware ADS-B
Sun 08:11:47 PM 41.0260 -82.5000 64° Northeast 502 578 39,000  Level FlightAware ADS-B
Sun 08:12:32 PM 41.0720 -82.3740 64° Northeast 501 577 39,000  Level FlightAware ADS-B
Sun 08:13:12 PM 41.1130 -82.2620 64° Northeast 501 577 39,000  Level FlightAware ADS-B
Sun 08:13:57 PM 41.1580 -82.1400 64° Northeast 500 575 39,000  Level FlightAware ADS-B
Sun 08:14:37 PM 41.1980 -82.0300 64° Northeast 500 575 39,000  Level FlightAware ADS-B
Sun 08:15:22 PM 41.2420 -81.9070 65° Northeast 500 575 39,000  Level FlightAware ADS-B
Sun 08:16:02 PM 41.2820 -81.7960 64° Northeast 500 575 39,000  Level FlightAware ADS-B
Sun 08:16:42 PM 41.3230 -81.6810 65° Northeast 500 575 39,000  Level FlightAware ADS-B
Sun 08:17:22 PM 41.3600 -81.5730 65° Northeast 499 574 39,000  Level FlightAware ADS-B
Sun 08:18:07 PM 41.3890 -81.4370 74° East 497 572 39,000  Level FlightAware ADS-B
Sun 08:18:52 PM 41.4100 -81.3010 78° East 497 572 39,000  Level FlightAware ADS-B
Sun 08:19:32 PM 41.4290 -81.1810 78° East 497 572 39,000  Level FlightAware ADS-B
Sun 08:20:12 PM 41.4460 -81.0650 79° East 498 573 39,000  Level FlightAware ADS-B
Sun 08:20:57 PM 41.4660 -80.9280 79° East 499 574 39,000  Level FlightAware ADS-B
Sun 08:21:37 PM 41.4840 -80.8080 79° East 499 574 39,000  Level FlightAware ADS-B
Sun 08:22:22 PM 41.5030 -80.6730 79° East 500 575 39,000  Level FlightAware ADS-B
Sun 08:23:02 PM 41.5200 -80.5540 79° East 500 575 39,000  Level FlightAware ADS-B
Sun 08:23:42 PM 41.5380 -80.4300 79° East 501 577 39,000  Level FlightAware ADS-B
Sun 08:24:17 PM 41.5530 -80.3230 79° East 502 578 39,000  Level FlightAware ADS-B
Sun 08:24:57 PM 41.5660 -80.2330 79° East 503 579 39,000  Level FlightAware ADS-B
Sun 08:25:47 PM 41.5880 -80.0700 80° East 505 581 39,000  Level FlightAware ADS-B
Sun 08:26:32 PM 41.6090 -79.9210 79° East 506 582 39,000  Level FlightAware ADS-B
Sun 08:27:27 PM 41.6300 -79.7660 80° East 506 582 39,000  Level FlightAware ADS-B
Sun 08:28:07 PM 41.6450 -79.6520 80° East 505 581 39,000  Level FlightAware ADS-B
Sun 08:28:47 PM 41.6640 -79.5100 80° East 506 582 39,000  Level FlightAware ADS-B
Sun 08:29:27 PM 41.6780 -79.4050 80° East 506 582 39,000  Level FlightAware ADS-B
Sun 08:30:17 PM 41.6970 -79.2560 80° East 507 583 39,000  Level FlightAware ADS-B
Sun 08:30:52 PM 41.7150 -79.1180 80° East 507 583 39,000  Level FlightAware ADS-B
Sun 08:31:37 PM 41.7330 -78.9800 80° East 507 583 39,000  Level FlightAware ADS-B
Sun 08:32:22 PM 41.7500 -78.8390 81° East 507 583 39,000  Level FlightAware ADS-B
Sun 08:33:02 PM 41.7660 -78.7150 80° East 506 582 39,000  Level FlightAware ADS-B
Sun 08:33:47 PM 41.7840 -78.5730 80° East 507 583 39,000  Level FlightAware ADS-B
Sun 08:34:27 PM 41.7990 -78.4490 81° East 507 583 39,000  Level FlightAware ADS-B
Sun 08:35:12 PM 41.8150 -78.3110 81° East 508 585 39,000  Level FlightAware ADS-B
Sun 08:35:52 PM 41.8300 -78.1890 81° East 508 585 39,000  Level FlightAware ADS-B
Sun 08:36:32 PM 41.8450 -78.0660 81° East 508 585 39,000  Level FlightAware ADS-B
Sun 08:37:17 PM 41.8610 -77.9250 81° East 507 583 39,000  Level FlightAware ADS-B
Sun 08:37:57 PM 41.8530 -77.8010 95° East 491 565 39,000  Level FlightAware ADS-B
Sun 08:38:42 PM 41.8200 -77.6710 109° East 488 562 39,000  Level FlightAware ADS-B
Sun 08:39:22 PM 41.7900 -77.5590 110° East 490 564 39,000  Level FlightAware ADS-B
Sun 08:40:02 PM 41.7590 -77.4460 110° East 492 566 39,000  Level FlightAware ADS-B
Sun 08:40:47 PM 41.7240 -77.3160 110° East 493 567 39,000  Level FlightAware ADS-B
Sun 08:41:27 PM 41.6940 -77.2050 110° East 494 568 39,000  Level FlightAware ADS-B
Sun 08:42:07 PM 41.6640 -77.0950 110° East 494 568 39,000  Level FlightAware ADS-B
Sun 08:42:52 PM 41.6260 -76.9580 110° East 497 572 39,000  Level FlightAware ADS-B
Sun 08:43:02 PM 41.6153 -76.9177 110° East 497 572 39,000  Level FlightAware ADS-B
Sun 08:43:34 PM 41.5900 -76.8257 110° East 498 573 39,000  Level FlightAware ADS-B
Sun 08:44:07 PM 41.5642 -76.7321 110° East 498 573 39,000  Level FlightAware ADS-B
Sun 08:44:38 PM 41.5393 -76.6425 110° East 497 572 39,000  Level FlightAware ADS-B
Sun 08:45:12 PM 41.5120 -76.5450 110° East 497 572 39,000  Level FlightAware ADS-B
Sun 08:45:43 PM 41.4873 -76.4565 110° East 498 573 39,000 -393 Level FlightAware ADS-B
Sun 08:46:13 PM 41.4635 -76.3709 110° East 493 567 38,600 -1,400 Descending FlightAware ADS-B
Sun 08:46:43 PM 41.4392 -76.2846 111° Southeast 492 566 37,600 -1,967 Descending FlightAware ADS-B
Sun 08:47:14 PM 41.4150 -76.1991 111° Southeast 488 562 36,600 -2,361 Descending FlightAware ADS-B
Sun 08:47:44 PM 41.3907 -76.1133 111° Southeast 493 567 35,200 -2,557 Descending FlightAware ADS-B
Sun 08:48:15 PM 41.3658 -76.0261 111° Southeast 493 567 34,000 -2,557 Descending FlightAware ADS-B
Sun 08:48:45 PM 41.3416 -75.9409 111° Southeast 494 568 32,600 -2,806 Descending FlightAware ADS-B
Sun 08:49:17 PM 41.3161 -75.8522 111° Southeast 493 567 31,100 -3,194 Descending FlightAware ADS-B
Sun 08:49:47 PM 41.2912 -75.7653 111° Southeast 497 572 29,300 -3,333 Descending FlightAware ADS-B
Sun 08:50:20 PM 41.2629 -75.6727 112° Southeast 492 566 27,600 -2,776 Descending FlightAware ADS-B
Sun 08:50:54 PM 41.2324 -75.5800 114° Southeast 480 552 26,200 -2,438 Descending FlightAware ADS-B
Sun 08:51:24 PM 41.2052 -75.4994 114° Southeast 472 543 25,000 -2,400 Descending FlightAware ADS-B
Sun 08:51:54 PM 41.1786 -75.4211 114° Southeast 463 533 23,800 -1,869 Descending FlightAware ADS-B
Sun 08:52:25 PM 41.1519 -75.3426 114° Southeast 446 513 23,100 -774 Descending FlightAware ADS-B
Sun 08:52:56 PM 41.1253 -75.2650 114° Southeast 452 520 23,000 -94 Descending FlightAware ADS-B
Sun 08:53:29 PM 41.0969 -75.1821 114° Southeast 465 535 23,000  Level FlightAware ADS-B
Sun 08:53:59 PM 41.0700 -75.1025 114° Southeast 469 540 23,000  Level FlightAware ADS-B
Sun 08:54:32 PM 41.0410 -75.0173 114° Southeast 470 541 23,000  Level FlightAware ADS-B
Sun 08:55:02 PM 41.0138 -74.9377 114° Southeast 470 541 23,000  Level FlightAware ADS-B
Sun 08:55:23 PM 40.9978 -74.8806 110° East 472 543 23,000  Level FlightAware ADS-B
Sun 08:55:40 PM 40.9888 -74.8336 104° East 472 543 23,000 -261 Level FlightAware ADS-B
Sun 08:55:46 PM 40.9862 -74.8149 100° East 473 544 22,900 -1,333 Descending FlightAware ADS-B
Sun 08:55:49 PM 40.9854 -74.8069 98° East 472 543 22,800 -1,412 Descending FlightAware ADS-B
Sun 08:56:20 PM 40.9757 -74.7211 98° East 468 539 22,100 -1,574 Descending FlightAware ADS-B
Sun 08:56:50 PM 40.9661 -74.6351 98° East 462 532 21,200 -1,574 Descending FlightAware ADS-B
Sun 08:57:21 PM 40.9567 -74.5520 98° East 437 503 20,500 -938 Descending FlightAware ADS-B
Sun 08:57:54 PM 40.9476 -74.4703 98° East 402 463 20,200 -727 Descending FlightAware ADS-B
Sun 08:58:27 PM 40.9386 -74.3916 99° East 379 436 19,700 -938 Descending FlightAware ADS-B
Sun 08:58:58 PM 40.9305 -74.3224 99° East 361 415 19,200 -712 Descending FlightAware ADS-B
Sun 08:59:26 PM 40.9236 -74.2618 99° East 349 402 19,000 -387 Descending FlightAware ADS-B
Sun 08:59:29 PM 40.9229 -74.2559 99° East 348 400 19,000  Level FlightAware ADS-B
Sun 08:59:43 PM 40.9189 -74.2276 101° East 345 397 19,000  Level FlightAware ADS-B
Sun 08:59:51 PM 40.9143 -74.2116 111° Southeast 342 394 19,000  Level FlightAware ADS-B
Sun 09:00:01 PM 40.9062 -74.1943 122° Southeast 339 390 19,000  Level FlightAware ADS-B
Sun 09:00:02 PM 40.9050 -74.1923 128° Southeast 338 389 19,000  Level FlightAware ADS-B
Sun 09:00:11 PM 40.8951 -74.1791 135° Southeast 335 386 19,000  Level FlightAware ADS-B
Sun 09:00:25 PM 40.8769 -74.1634 147° Southeast 332 382 19,000  Level FlightAware ADS-B
Sun 09:00:53 PM 40.8391 -74.1380 153° Southeast 339 390 19,000  Level FlightAware ADS-B
Sun 09:00:57 PM 40.8343 -74.1347 153° Southeast 332 382 19,000  Level FlightAware ADS-B
Sun 09:01:24 PM 40.7964 -74.1098 154° Southeast 331 381 19,000  Level FlightAware ADS-B
Sun 09:01:27 PM 40.7926 -74.1073 154° Southeast 331 381 19,000 -1,273 Level FlightAware ADS-B
Sun 09:01:57 PM 40.7517 -74.0803 153° Southeast 325 374 18,300 -1,313 Descending FlightAware ADS-B
Sun 09:01:59 PM 40.7493 -74.0786 152° Southeast 325 374 18,300 -2,000 Level FlightAware ADS-B
Sun 09:02:27 PM 40.7112 -74.0537 154° Southeast 323 372 17,300 -2,066 Descending FlightAware ADS-B
Sun 09:03:00 PM 40.6672 -74.0258 154° Southeast 318 366 16,200 -2,000 Descending FlightAware ADS-B
Sun 09:03:33 PM 40.6242 -73.9983 154° Southeast 314 361 15,100 -1,909 Descending FlightAware ADS-B
Sun 09:04:06 PM 40.5814 -73.9718 155° Southeast 309 356 14,100 -2,156 Descending FlightAware ADS-B
Sun 09:04:37 PM 40.5413 -73.9480 156° South 301 346 12,800 -2,557 Descending FlightAware ADS-B
Sun 09:05:07 PM 40.5034 -73.9260 156° South 295 339 11,500 -2,604 Descending FlightAware ADS-B
Sun 09:05:30 PM 40.4751 -73.9097 156° South 288 331 10,500 -2,471 Descending FlightAware ADS-B
Sun 09:05:41 PM 40.4619 -73.8999 151° Southeast 286 329 10,100 -2,333 Descending FlightAware ADS-B
Sun 09:05:48 PM 40.4554 -73.8923 138° Southeast 286 329 9,800 -2,308 Descending FlightAware ADS-B
Sun 09:05:54 PM 40.4506 -73.8840 127° Southeast 284 327 9,600 -2,500 Descending FlightAware ADS-B
Sun 09:06:00 PM 40.4464 -73.8750 122° Southeast 281 323 9,300 -2,455 Descending FlightAware ADS-B
Sun 09:06:16 PM 40.4369 -73.8510 117° Southeast 277 319 8,700 -2,250 Descending FlightAware ADS-B
Sun 09:06:32 PM 40.4282 -73.8285 117° Southeast 272 313 8,100 -2,400 Descending FlightAware ADS-B
Sun 09:06:41 PM 40.4225 -73.8141 117° Southeast 269 310 7,700 -2,471 Descending FlightAware ADS-B
Sun 09:06:49 PM 40.4183 -73.8038 118° Southeast 267 307 7,400 -2,182 Descending FlightAware ADS-B
Sun 09:06:52 PM 40.4165 -73.7985 114° Southeast 266 306 7,300 -2,571 Descending FlightAware ADS-B
Sun 09:06:56 PM 40.4144 -73.7919 113° Southeast 264 304 7,100 -2,250 Descending FlightAware ADS-B
Sun 09:07:00 PM 40.4132 -73.7861 105° East 263 303 7,000 -1,714 Descending FlightAware ADS-B
Sun 09:07:03 PM 40.4125 -73.7814 101° East 262 302 6,900 -2,250 Descending FlightAware ADS-B
Sun 09:07:08 PM 40.4122 -73.7739 93° East 260 299 6,700 -2,500 Descending FlightAware ADS-B
Sun 09:07:15 PM 40.4131 -73.7631 84° East 256 295 6,400 -2,348 Descending FlightAware ADS-B
Sun 09:07:31 PM 40.4169 -73.7390 78° East 253 291 5,800 -2,333 Descending FlightAware ADS-B
Sun 09:07:51 PM 40.4223 -73.7097 76° East 251 289 5,000 -2,333 Descending FlightAware ADS-B
Sun 09:08:07 PM 40.4266 -73.6867 76° East 248 285 4,400 -1,935 Descending FlightAware ADS-B
Sun 09:08:22 PM 40.4302 -73.6642 78° East 237 273 4,000 -1,333 Descending FlightAware ADS-B
Sun 09:08:52 PM 40.4389 -73.6233 74° East 234 269 3,400 -493 Descending FlightAware ADS-B
Sun 09:09:35 PM 40.4790 -73.5910 31° Northeast 247 284 3,400 -265 Level FlightAware ADS-B
Sun 09:10:00 PM 40.5040 -73.5760 25° Northeast 247 284 3,100 -655 Descending FlightAware ADS-B
Sun 09:10:30 PM 40.5350 -73.5580 24° Northeast 246 283 2,800 -655 Descending FlightAware ADS-B
Sun 09:10:55 PM 40.5610 -73.5410 26° Northeast 246 283 2,500 -436 Descending FlightAware ADS-B
Sun 09:11:25 PM 40.5920 -73.5210 26° Northeast 247 284 2,400 -100 Descending FlightAware ADS-B
Sun 09:11:55 PM 40.6240 -73.5010 25° Northeast 247 284 2,400 -150 Level FlightAware ADS-B
Sun 09:12:05 PM 40.6350 -73.4970 15° North 250 288 2,300 -960 Descending FlightAware ADS-B
Sun 09:12:20 PM 40.6510 -73.5000 352° North 247 284 2,000 -1,000 Descending FlightAware ADS-B
Sun 09:12:35 PM 40.6660 -73.5140 325° Northwest 241 277 1,800 -800 Descending FlightAware ADS-B
Sun 09:13:05 PM 40.6870 -73.5450 312° West 230 265 1,400 -436 Descending FlightAware ADS-B
Sun 09:13:30 PM 40.6920 -73.5760 282° West 213 245 1,400  Level FlightAware ADS-B
Sun 09:14:00 PM 40.6960 -73.6160 278° West 212 244 1,400 -200 Level FlightAware ADS-B
Sun 09:14:30 PM 40.6960 -73.6520 270° West 192 221 1,200 -429 Descending FlightAware ADS-B
Sun 09:15:10 PM 40.6940 -73.6950 267° West 173 199 900 -545 Descending FlightAware ADS-B
Sun 09:15:25 PM 40.6880 -73.7100 242° Southwest 162 186 700 -800 Descending FlightAware ADS-B
Sun 09:15:40 PM 40.6800 -73.7200 223° Southwest 144 166 500 -900 Descending FlightAware ADS-B
Sun 09:16:05 PM 40.6670 -73.7300 210° Southwest 128 147 100 -960 Descending FlightAware ADS-B
Sun 09:16:35 PM 40.6510 -73.7420 210° Southwest 127 146 -200 Descending FlightAware ADS-B
Sun 09:17:00 PM 40.6390 -73.7510 210° Southwest 128 147  Level FlightAware ADS-B

Login

Don't have an account? Register now (free) for customized features, flight alerts, and more!